Time;durP1;ratioP1;P1;durP2;ratioP2;P2;SDS_P1;SDS_P2;PMS_P1;PMS_P2;Temp;Humidity;BMP_temperature;BMP_pressure;BME280_temperature;BME280_humidity;BME280_pressure;Samples;Min_cycle;Max_cycle;Signal;HPM_P1;HPM_P2
2021/07/02 00:02:12;;;;;;;8.20;5.57;;;;;;;19.93;61.59;100849.41;6126610;23;20509;-80
2021/07/02 00:04:37;;;;;;;7.78;5.95;;;;;;;19.96;61.51;100858.03;6152448;23;20005;-80
2021/07/02 00:07:03;;;;;;;10.23;5.40;;;;;;;19.95;61.66;100852.75;6153142;23;20009;-80
2021/07/02 00:09:28;;;;;;;8.45;5.28;;;;;;;20.02;61.35;100859.16;6126309;23;20056;-80
2021/07/02 00:11:53;;;;;;;11.95;5.22;;;;;;;20.07;61.22;100853.09;6152719;23;20005;-80
2021/07/02 00:14:19;;;;;;;30.33;6.15;;;;;;;20.08;61.11;100852.91;6152824;23;20029;-80
2021/07/02 00:16:44;;;;;;;11.18;5.60;;;;;;;20.05;61.45;100850.56;6152774;23;20021;-80
2021/07/02 00:19:09;;;;;;;7.15;5.30;;;;;;;20.09;61.13;100849.13;6152895;23;20016;-80
2021/07/02 00:21:35;;;;;;;7.63;5.20;;;;;;;20.07;61.07;100853.09;6152951;23;20005;-80
2021/07/02 00:24:00;;;;;;;8.40;5.97;;;;;;;20.09;61.08;100849.13;6152596;23;20009;-80
2021/07/02 00:26:26;;;;;;;6.57;5.07;;;;;;;20.16;61.10;100851.91;6153047;23;20013;-80
2021/07/02 00:28:51;;;;;;;9.50;5.43;;;;;;;20.12;61.20;100861.56;6152662;23;20025;-80
2021/07/02 00:31:16;;;;;;;7.18;5.80;;;;;;;19.96;61.45;100857.19;6126140;23;20056;-80
2021/07/02 00:33:43;;;;;;;9.30;5.70;;;;;;;19.93;61.31;100861.16;6152716;23;20078;-80
2021/07/02 00:36:09;;;;;;;8.98;4.70;;;;;;;20.09;60.80;100864.69;6152420;23;20009;-80
2021/07/02 00:38:34;;;;;;;10.55;5.50;;;;;;;19.85;61.41;100858.53;6126483;23;20323;-80
2021/07/02 00:40:59;;;;;;;10.07;5.82;;;;;;;19.84;61.77;100853.28;6152770;23;20006;-80
2021/07/02 00:43:25;;;;;;;11.77;6.53;;;;;;;19.83;61.70;100857.03;6126573;23;20024;-80
2021/07/02 00:45:50;;;;;;;6.82;5.65;;;;;;;19.81;61.62;100859.13;6127004;23;20045;-80
2021/07/02 00:48:16;;;;;;;7.22;5.85;;;;;;;19.74;62.45;100865.38;6152427;23;20005;-80
2021/07/02 00:50:46;;;;;;;9.45;6.30;;;;;;;19.77;61.72;100855.09;6152603;23;20005;-80
2021/07/02 00:53:12;;;;;;;9.57;6.30;;;;;;;19.71;61.56;100859.44;6126367;23;20069;-80
2021/07/02 00:55:38;;;;;;;7.95;5.50;;;;;;;19.80;61.48;100852.81;6152957;23;20083;-80
2021/07/02 00:58:04;;;;;;;8.50;5.80;;;;;;;19.70;62.00;100855.84;6126378;23;20017;-80
2021/07/02 01:00:30;;;;;;;8.07;6.05;;;;;;;19.61;62.42;100859.72;6152905;23;20436;-80
2021/07/02 01:02:55;;;;;;;6.93;4.90;;;;;;;19.60;62.40;100858.03;6152720;23;20039;-80
2021/07/02 01:05:21;;;;;;;8.75;5.22;;;;;;;19.61;62.39;100865.16;6152649;23;20012;-80
2021/07/02 01:07:47;;;;;;;12.05;6.03;;;;;;;19.60;62.93;100868.94;6152475;23;20363;-80
2021/07/02 01:10:16;;;;;;;11.77;5.90;;;;;;;19.60;63.05;100866.22;6152532;23;20334;-80
2021/07/02 01:12:42;;;;;;;9.10;6.07;;;;;;;19.60;62.56;100873.56;6152539;23;20005;-80
2021/07/02 01:15:25;;;;;;;12.45;6.60;;;;;;;19.64;62.99;100863.94;6152851;23;20064;-80
2021/07/02 01:17:51;;;;;;;12.07;6.65;;;;;;;19.68;63.05;100863.41;6152890;23;20016;-80
2021/07/02 01:20:16;;;;;;;12.45;6.72;;;;;;;19.62;63.23;100877.78;6125852;23;20568;-80
2021/07/02 01:22:42;;;;;;;10.35;5.88;;;;;;;19.58;63.44;100870.16;6152385;23;20009;-80
2021/07/02 01:25:08;;;;;;;9.88;6.00;;;;;;;19.53;63.15;100868.03;6152090;23;20009;-80
2021/07/02 01:27:34;;;;;;;8.40;5.05;;;;;;;19.67;62.62;100869.06;6152520;23;20010;-80
2021/07/02 01:29:59;;;;;;;10.38;6.07;;;;;;;19.58;62.81;100870.16;6125744;23;20025;-80
2021/07/02 01:32:25;;;;;;;10.23;5.40;;;;;;;19.43;63.78;100867.47;6152942;23;20330;-80
2021/07/02 01:34:52;;;;;;;9.43;5.25;;;;;;;19.42;64.12;100872.06;6152137;23;20413;-80
2021/07/02 01:37:17;;;;;;;6.88;4.90;;;;;;;19.37;64.40;100873.69;6125474;23;20036;-80
2021/07/02 01:39:43;;;;;;;11.32;6.03;;;;;;;19.25;64.96;100865.13;6152064;23;20006;-80
2021/07/02 01:42:10;;;;;;;6.55;5.38;;;;;;;19.43;65.07;100875.66;6125828;23;20005;-80
2021/07/02 01:44:36;;;;;;;10.57;6.60;;;;;;;19.26;65.03;100873.13;6125317;23;20013;-80
2021/07/02 01:47:02;;;;;;;12.50;7.20;;;;;;;19.27;65.24;100872.09;6152336;23;20009;-80
2021/07/02 01:49:27;;;;;;;12.40;5.63;;;;;;;19.47;64.50;100872.38;6151646;23;20075;-80
2021/07/02 01:51:53;;;;;;;11.25;6.25;;;;;;;19.39;64.57;100867.00;6152329;23;20039;-80
2021/07/02 01:54:18;;;;;;;12.48;5.75;;;;;;;19.46;64.71;100865.19;6125410;23;20013;-80
2021/07/02 01:56:52;;;;;;;13.20;6.82;;;;;;;19.32;64.72;100873.44;6125787;23;20435;-80
2021/07/02 01:59:19;;;;;;;15.75;7.50;;;;;;;19.22;65.03;100869.09;6152436;23;20001;-80
2021/07/02 02:01:49;;;;;;;12.43;6.95;;;;;;;19.36;64.65;100869.28;6153851;23;20013;-80
2021/07/02 02:04:14;;;;;;;10.88;6.88;;;;;;;19.36;64.57;100872.00;6127879;23;20005;-80
2021/07/02 02:06:40;;;;;;;12.60;7.03;;;;;;;19.33;64.61;100864.19;6153800;23;20032;-80
2021/07/02 02:09:06;;;;;;;9.15;6.63;;;;;;;19.24;64.29;100858.00;6154540;23;20009;-80
2021/07/02 02:11:33;;;;;;;10.88;6.25;;;;;;;19.21;64.63;100864.66;6154147;23;20005;-80
2021/07/02 02:13:58;;;;;;;15.10;7.18;;;;;;;19.19;64.70;100861.31;6127635;23;20311;-80
2021/07/02 02:16:25;;;;;;;13.27;6.68;;;;;;;19.18;64.37;100853.31;6155449;23;20080;-80
2021/07/02 02:18:50;;;;;;;9.73;6.20;;;;;;;19.09;64.74;100854.44;6154356;23;20013;-80
2021/07/02 02:21:16;;;;;;;12.75;7.55;;;;;;;18.97;65.57;100854.91;6154440;23;20010;-80
2021/07/02 02:23:41;;;;;;;9.43;6.55;;;;;;;18.92;65.56;100862.81;6127939;23;20020;-80
2021/07/02 02:26:07;;;;;;;11.85;7.07;;;;;;;18.83;64.76;100861.22;6154347;23;20035;-80
2021/07/02 02:28:32;;;;;;;10.88;6.82;;;;;;;18.92;64.36;100860.09;6153661;23;20032;-80
2021/07/02 02:30:57;;;;;;;16.70;7.65;;;;;;;18.87;64.86;100861.69;6154467;23;20009;-80
2021/07/02 02:33:23;;;;;;;8.73;6.65;;;;;;;18.86;64.97;100862.72;6154528;23;20020;-80
2021/07/02 02:35:48;;;;;;;13.57;7.30;;;;;;;18.85;65.02;100866.47;6127849;23;20009;-80
2021/07/02 02:38:13;;;;;;;12.38;6.38;;;;;;;18.99;64.53;100868.34;6154295;23;20036;-80
2021/07/02 02:40:39;;;;;;;9.90;6.15;;;;;;;18.96;64.28;100866.84;6154101;23;20404;-80
2021/07/02 02:43:04;;;;;;;19.35;7.60;;;;;;;18.88;64.27;100874.25;6154539;23;20005;-80
2021/07/02 02:45:30;;;;;;;16.13;8.55;;;;;;;18.85;64.53;100867.31;6154137;23;20005;-80
2021/07/02 02:47:55;;;;;;;11.90;7.95;;;;;;;18.82;64.75;100867.66;6127769;23;20032;-80
2021/07/02 02:50:21;;;;;;;17.23;8.98;;;;;;;18.78;65.13;100871.81;6153843;23;20497;-80
2021/07/02 02:52:46;;;;;;;13.23;7.13;;;;;;;18.88;64.95;100869.66;6154798;23;20085;-80
2021/07/02 02:55:12;;;;;;;15.50;8.00;;;;;;;18.87;64.64;100867.13;6154256;23;20158;-80
2021/07/02 02:57:37;;;;;;;12.23;8.65;;;;;;;18.87;64.69;100869.84;6128183;23;20334;-80
2021/07/02 03:00:09;;;;;;;10.50;7.40;;;;;;;18.86;64.70;100873.63;6127293;23;20006;-80
2021/07/02 03:02:34;;;;;;;13.05;7.90;;;;;;;18.73;65.29;100876.97;6127529;23;20008;-80
2021/07/02 03:04:59;;;;;;;16.77;8.45;;;;;;;18.76;64.93;100876.59;6127411;23;20341;-80
2021/07/02 03:07:25;;;;;;;11.65;7.80;;;;;;;18.72;65.17;100878.81;6154386;23;20334;-80
2021/07/02 03:09:50;;;;;;;14.43;8.82;;;;;;;18.69;65.63;100876.47;6153998;23;20324;-80
2021/07/02 03:12:15;;;;;;;15.70;9.30;;;;;;;18.73;65.06;100879.69;6153810;23;20438;-80
2021/07/02 03:14:41;;;;;;;15.98;9.30;;;;;;;18.71;65.69;100879.00;6154097;23;20005;-80
2021/07/02 03:17:06;;;;;;;17.15;9.90;;;;;;;18.80;65.59;100889.69;6153978;23;20062;-80
2021/07/02 03:19:31;;;;;;;18.58;10.23;;;;;;;18.79;65.82;100882.53;6127170;23;20568;-80
2021/07/02 03:21:57;;;;;;;14.98;8.55;;;;;;;18.90;65.49;100891.28;6153324;23;20013;-80
2021/07/02 03:24:22;;;;;;;11.43;7.32;;;;;;;18.92;65.11;100889.22;6153446;23;20141;-80
2021/07/02 03:26:47;;;;;;;16.60;9.18;;;;;;;18.85;65.70;100880.91;6153273;23;20424;-80
2021/07/02 03:29:13;;;;;;;17.35;9.20;;;;;;;18.80;64.95;100888.84;6153200;23;20017;-80
2021/07/02 03:31:38;;;;;;;19.58;8.35;;;;;;;18.83;65.13;100883.00;6153413;23;20046;-80
2021/07/02 03:34:03;;;;;;;13.63;8.43;;;;;;;18.81;65.52;100885.91;6153744;23;20035;-80
2021/07/02 03:36:29;;;;;;;17.00;9.90;;;;;;;18.74;66.79;100889.56;6153769;23;20430;-80
2021/07/02 03:38:54;;;;;;;20.38;10.73;;;;;;;18.80;66.54;100892.41;6153760;23;20016;-80
2021/07/02 03:41:20;;;;;;;19.98;10.15;;;;;;;18.82;67.02;100892.19;6153528;23;20059;-80
2021/07/02 03:43:45;;;;;;;12.55;8.38;;;;;;;18.95;66.23;100900.59;6153959;23;20059;-80
2021/07/02 03:46:11;;;;;;;17.70;10.60;;;;;;;18.79;67.01;100896.16;6127450;23;20103;-80
2021/07/02 03:48:36;;;;;;;19.70;10.93;;;;;;;18.76;67.25;100904.72;6153474;23;20009;-80
2021/07/02 03:51:01;;;;;;;12.85;8.30;;;;;;;18.90;66.74;100888.56;6153466;23;20005;-80
2021/07/02 03:53:27;;;;;;;18.58;11.18;;;;;;;18.85;67.90;100894.56;6153630;23;20005;-80
2021/07/02 03:55:52;;;;;;;21.08;11.32;;;;;;;18.86;67.88;100903.59;6153290;23;20009;-80
2021/07/02 03:58:17;;;;;;;23.35;11.90;;;;;;;18.87;68.08;100895.22;6153256;23;20072;-80
2021/07/02 04:00:42;;;;;;;20.38;11.15;;;;;;;18.89;68.40;100903.22;6153393;23;20024;-80
2021/07/02 04:03:08;;;;;;;21.50;13.02;;;;;;;18.91;69.42;100906.59;6126989;23;20012;-80
2021/07/02 04:05:33;;;;;;;32.30;13.43;;;;;;;18.95;69.81;100897.88;6154210;23;20492;-80
2021/07/02 04:07:58;;;;;;;23.98;11.40;;;;;;;19.03;69.60;100899.66;6153612;23;20009;-80
2021/07/02 04:10:24;;;;;;;26.67;13.68;;;;;;;18.92;70.88;100898.25;6153277;23;20001;-80
2021/07/02 04:12:49;;;;;;;21.55;12.25;;;;;;;19.00;70.24;100897.28;6126887;23;20010;-80
2021/07/02 04:15:14;;;;;;;26.83;12.05;;;;;;;19.07;70.18;100900.97;6153347;23;20009;-80
2021/07/02 04:17:40;;;;;;;21.42;13.43;;;;;;;18.96;71.28;100896.81;6153230;23;20087;-80
2021/07/02 04:20:08;;;;;;;26.83;14.52;;;;;;;19.07;70.83;100898.25;6153575;23;20039;-80
2021/07/02 04:22:35;;;;;;;25.85;14.25;;;;;;;18.91;72.45;100899.25;6126794;23;20001;-80
2021/07/02 04:25:00;;;;;;;25.98;13.05;;;;;;;18.93;72.36;100889.03;6153125;23;20012;-80
2021/07/02 04:27:26;;;;;;;20.65;11.35;;;;;;;19.02;71.61;100896.06;6153528;23;20014;-80
2021/07/02 04:29:51;;;;;;;24.50;13.35;;;;;;;19.03;71.87;100891.47;6152594;23;20025;-80
2021/07/02 04:32:17;;;;;;;26.33;12.48;;;;;;;19.01;71.86;100890.81;6126778;23;20489;-80
2021/07/02 04:34:42;;;;;;;25.98;12.93;;;;;;;18.95;72.40;100897.88;6127056;23;20025;-80
2021/07/02 04:37:08;;;;;;;20.95;11.43;;;;;;;18.92;72.44;100892.78;6153032;23;20063;-80
2021/07/02 04:39:33;;;;;;;22.70;13.98;;;;;;;18.84;72.85;100890.16;6126824;23;20136;-80
2021/07/02 04:41:58;;;;;;;25.80;12.63;;;;;;;18.88;73.07;100886.00;6153071;23;20009;-80
2021/07/02 04:44:23;;;;;;;25.67;13.55;;;;;;;18.87;73.19;100883.47;6152963;23;20424;-80
2021/07/02 04:46:49;;;;;;;16.42;10.88;;;;;;;18.86;73.40;100895.41;6152984;23;20005;-80
2021/07/02 04:49:14;;;;;;;24.90;12.73;;;;;;;18.86;73.55;100892.69;6152858;23;20380;-80
2021/07/02 04:51:39;;;;;;;20.70;12.35;;;;;;;18.95;73.15;100891.56;6153176;23;20092;-80
2021/07/02 04:54:05;;;;;;;27.35;12.32;;;;;;;19.01;72.96;100896.28;6126302;23;20064;-80
2021/07/02 04:56:31;;;;;;;23.15;11.57;;;;;;;19.00;72.72;100883.66;6152840;23;20005;-80
2021/07/02 04:58:57;;;;;;;27.10;12.85;;;;;;;18.95;73.29;100888.84;6152932;23;20330;-80
2021/07/02 05:01:23;;;;;;;27.67;13.45;;;;;;;18.98;73.30;100892.03;6152946;23;20573;-80
2021/07/02 05:03:49;;;;;;;20.58;10.68;;;;;;;19.09;72.79;100898.06;6126216;23;20001;-80
2021/07/02 05:06:15;;;;;;;27.95;12.93;;;;;;;19.10;72.89;100900.59;6153877;23;20029;-80
2021/07/02 05:08:40;;;;;;;23.95;10.65;;;;;;;19.24;72.23;100894.28;6152728;23;20080;-80
2021/07/02 05:11:09;;;;;;;22.40;11.07;;;;;;;19.14;72.67;100891.00;6152458;23;20006;-80
2021/07/02 05:13:36;;;;;;;19.23;10.27;;;;;;;19.20;72.27;100886.69;6153203;23;20009;-80
2021/07/02 05:16:01;;;;;;;18.45;9.55;;;;;;;19.34;71.88;100884.97;6152953;23;20009;-80
2021/07/02 05:18:27;;;;;;;21.83;9.63;;;;;;;19.19;72.01;100887.69;6152820;23;20060;-80
2021/07/02 05:20:52;;;;;;;16.45;9.50;;;;;;;19.27;72.20;100890.34;6152811;23;20009;-80
2021/07/02 05:23:17;;;;;;;26.20;9.65;;;;;;;19.28;72.20;100890.16;6152763;23;20017;-80
2021/07/02 05:25:42;;;;;;;21.70;8.85;;;;;;;19.28;72.35;100892.03;6126497;23;20020;-80
2021/07/02 05:28:08;;;;;;;22.17;9.02;;;;;;;19.43;71.60;100902.91;6152600;23;20036;-80
2021/07/02 05:30:33;;;;;;;18.67;7.63;;;;;;;19.46;71.56;100899.81;6152647;23;20052;-80
2021/07/02 05:32:59;;;;;;;15.85;6.93;;;;;;;19.55;70.34;100904.13;6126413;23;20443;-80
2021/07/02 05:35:25;;;;;;;22.00;6.28;;;;;;;19.58;70.15;100900.19;6152800;23;20071;-80
2021/07/02 05:37:50;;;;;;;20.15;7.53;;;;;;;19.62;70.54;100898.75;6153250;23;20009;-80
2021/07/02 05:40:16;;;;;;;17.73;6.47;;;;;;;19.63;69.88;100903.19;6126116;23;20335;-80
2021/07/02 05:42:43;;;;;;;15.55;5.88;;;;;;;19.70;69.81;100902.25;6152690;23;20012;-80
2021/07/02 05:45:09;;;;;;;21.92;6.05;;;;;;;19.63;69.50;100904.03;6153446;23;20016;-80
2021/07/02 05:47:38;;;;;;;13.90;5.93;;;;;;;19.60;69.23;100906.28;6153532;23;20005;-80
2021/07/02 05:50:06;;;;;;;19.63;5.60;;;;;;;19.66;68.90;100919.22;6153192;23;20016;-80
2021/07/02 05:52:32;;;;;;;19.48;5.72;;;;;;;19.59;69.54;100910.91;6153538;23;20044;-80
2021/07/02 05:54:58;;;;;;;23.65;5.20;;;;;;;19.64;69.73;100913.94;6153152;23;20315;-80
2021/07/02 05:57:23;;;;;;;19.30;5.05;;;;;;;19.77;69.00;100917.84;6153242;23;20013;-80
2021/07/02 05:59:48;;;;;;;15.10;5.35;;;;;;;19.78;69.51;100912.22;6126138;23;20005;-80
2021/07/02 06:02:13;;;;;;;20.77;5.53;;;;;;;19.85;69.36;100912.28;6154378;23;20006;-80
2021/07/02 06:04:39;;;;;;;20.90;6.00;;;;;;;19.65;69.69;100909.31;6152906;23;20433;-80
2021/07/02 06:07:04;;;;;;;12.38;5.30;;;;;;;19.76;69.82;100911.56;6126658;23;20010;-80
2021/07/02 06:09:32;;;;;;;16.05;4.82;;;;;;;19.90;69.54;100913.41;6152813;23;20374;-80
2021/07/02 06:11:57;;;;;;;14.52;4.85;;;;;;;20.12;68.64;100927.09;6152878;23;20001;-80
2021/07/02 06:14:28;;;;;;;20.30;5.97;;;;;;;20.22;68.50;100924.88;6125901;23;20069;-80
2021/07/02 06:16:53;;;;;;;13.88;5.15;;;;;;;20.41;67.96;100918.75;6153975;23;20072;-80
2021/07/02 06:19:19;;;;;;;15.32;5.57;;;;;;;20.41;67.62;100923.38;6152405;23;20032;-80
2021/07/02 06:21:45;;;;;;;19.88;7.55;;;;;;;20.37;67.81;100933.00;6152762;23;20016;-80
2021/07/02 06:24:10;;;;;;;21.27;6.65;;;;;;;20.34;68.17;100930.66;6153447;23;20009;-80
2021/07/02 06:26:35;;;;;;;15.20;6.55;;;;;;;20.39;67.96;100942.69;6153203;23;20126;-80
2021/07/02 06:29:01;;;;;;;13.88;5.85;;;;;;;20.49;67.78;100938.78;6152296;23;20100;-80
2021/07/02 06:31:26;;;;;;;13.50;5.22;;;;;;;20.55;68.03;100943.50;6127083;23;20335;-80
2021/07/02 06:33:51;;;;;;;14.15;5.97;;;;;;;20.69;66.95;100945.28;6126271;23;20009;-80
2021/07/02 06:36:17;;;;;;;15.40;5.32;;;;;;;20.65;67.30;100955.78;6152950;23;20010;-80
2021/07/02 06:38:42;;;;;;;14.70;5.38;;;;;;;20.70;66.90;100943.44;6152787;23;20013;-80
2021/07/02 06:41:07;;;;;;;19.13;5.78;;;;;;;20.82;66.77;100948.16;6126319;23;20386;-80
2021/07/02 06:43:33;;;;;;;16.17;5.15;;;;;;;20.98;66.07;100954.38;6152821;23;20005;-80
2021/07/02 06:45:58;;;;;;;19.25;6.60;;;;;;;20.99;65.64;100942.38;6153900;23;20073;-80
2021/07/02 06:48:23;;;;;;;15.52;5.75;;;;;;;20.81;66.36;100956.53;6154480;23;20040;-80
2021/07/02 06:50:50;;;;;;;15.60;5.90;;;;;;;20.79;66.29;100953.19;6154771;23;20032;-80
2021/07/02 06:53:16;;;;;;;14.25;5.68;;;;;;;20.84;66.42;100947.94;6127872;23;20005;-80
2021/07/02 06:55:41;;;;;;;10.90;6.25;;;;;;;20.93;66.25;100945.91;6128502;23;20019;-80
2021/07/02 06:58:09;;;;;;;10.63;5.88;;;;;;;21.00;66.16;100946.81;6154504;23;20089;-80
2021/07/02 07:00:34;;;;;;;9.20;6.40;;;;;;;20.87;66.14;100947.53;6154826;23;20033;-80
2021/07/02 07:03:00;;;;;;;14.52;5.93;;;;;;;20.79;66.59;100945.81;6128135;23;20006;-80
2021/07/02 07:05:25;;;;;;;15.75;6.32;;;;;;;20.71;66.75;100939.66;6154089;23;20338;-81
2021/07/02 07:07:50;;;;;;;17.67;6.38;;;;;;;20.70;66.57;100959.84;6154077;23;20005;-80
2021/07/02 07:10:16;;;;;;;12.00;6.63;;;;;;;20.65;67.16;100944.00;6154497;23;20024;-80
2021/07/02 07:12:41;;;;;;;13.18;7.10;;;;;;;20.82;66.59;100950.06;6154043;23;20128;-80
2021/07/02 07:15:08;;;;;;;14.75;7.13;;;;;;;20.73;66.47;100949.34;6153825;23;20009;-80
2021/07/02 07:17:33;;;;;;;14.75;7.40;;;;;;;20.78;65.87;100946.84;6154781;23;20362;-80
2021/07/02 07:19:59;;;;;;;10.82;6.45;;;;;;;20.88;66.33;100952.84;6154249;23;20012;-80
2021/07/02 07:22:25;;;;;;;15.30;7.53;;;;;;;20.99;65.81;100948.69;6154102;23;20015;-80
2021/07/02 07:24:51;;;;;;;11.93;6.93;;;;;;;20.97;65.81;100949.97;6154051;23;20451;-81
2021/07/02 07:27:16;;;;;;;20.50;7.90;;;;;;;20.93;65.80;100949.50;6153763;23;20338;-80
2021/07/02 07:29:42;;;;;;;17.58;7.65;;;;;;;21.02;65.67;100958.38;6126941;23;20022;-80
2021/07/02 07:32:07;;;;;;;15.02;7.07;;;;;;;21.07;65.52;100950.44;6154302;23;20005;-80
2021/07/02 07:37:19;;;;;;;12.77;7.32;;;;;;;21.50;64.77;100951.16;6154228;23;20021;-80
2021/07/02 07:39:46;;;;;;;14.38;6.45;;;;;;;21.67;64.04;100945.34;6153696;23;20005;-80
2021/07/02 07:42:11;;;;;;;14.60;7.32;;;;;;;21.45;63.59;100944.59;6154096;23;20009;-80
2021/07/02 07:44:36;;;;;;;14.65;6.30;;;;;;;21.63;63.77;100938.59;6153739;23;20036;-81
2021/07/02 07:47:02;;;;;;;14.60;7.53;;;;;;;21.80;63.64;100950.88;6154997;23;20058;-80
2021/07/02 07:49:27;;;;;;;10.27;6.63;;;;;;;22.00;63.35;100948.19;6153807;23;20012;-80
2021/07/02 07:54:21;;;;;;;9.00;6.35;;;;;;;21.83;63.12;100945.00;6153917;23;20017;-80
2021/07/02 07:56:50;;;;;;;11.57;6.80;;;;;;;21.90;62.63;100947.75;6127901;23;20423;-80
2021/07/02 07:59:17;;;;;;;13.90;6.53;;;;;;;21.80;62.93;100946.25;6153539;23;20006;-80
2021/07/02 08:01:42;;;;;;;12.88;6.28;;;;;;;21.89;61.80;100952.41;6153644;23;20381;-80
2021/07/02 08:04:08;;;;;;;14.48;6.88;;;;;;;21.97;60.82;100963.13;6154264;23;20088;-80
2021/07/02 08:06:33;;;;;;;12.48;7.03;;;;;;;22.06;60.33;100961.06;6153736;23;20015;-81
2021/07/02 08:08:58;;;;;;;19.67;6.68;;;;;;;21.90;62.06;100959.53;6154350;23;20005;-80
2021/07/02 08:11:24;;;;;;;12.10;6.88;;;;;;;21.82;62.56;100961.63;6154235;23;20021;-80
2021/07/02 08:13:49;;;;;;;14.65;7.22;;;;;;;21.66;63.02;100966.38;6127657;23;20006;-80
2021/07/02 08:16:14;;;;;;;12.48;6.70;;;;;;;21.66;63.22;100966.38;6154383;23;20049;-80
2021/07/02 08:18:40;;;;;;;12.50;7.38;;;;;;;21.63;63.63;100960.47;6153877;23;20385;-80
2021/07/02 08:21:05;;;;;;;12.75;7.65;;;;;;;21.66;63.88;100969.13;6127290;23;20005;-80
2021/07/02 08:23:30;;;;;;;11.30;7.15;;;;;;;21.75;64.04;100973.38;6153179;23;20006;-80
2021/07/02 08:25:56;;;;;;;13.13;7.45;;;;;;;21.73;63.78;100970.03;6154054;23;20081;-80
2021/07/02 08:31:06;;;;;;;11.32;6.75;;;;;;;21.55;63.43;100969.72;6153909;23;20028;-81
2021/07/02 08:33:31;;;;;;;14.55;7.18;;;;;;;21.49;61.84;100976.84;6153786;23;20002;-80
2021/07/02 08:35:56;;;;;;;12.93;7.95;;;;;;;21.63;62.16;100966.78;6154285;23;20006;-80
2021/07/02 08:38:22;;;;;;;15.25;7.65;;;;;;;21.89;61.89;100973.47;6153850;23;20001;-80
2021/07/02 08:40:47;;;;;;;12.27;6.72;;;;;;;21.67;60.65;100978.19;6153902;23;20010;-81
2021/07/02 08:43:12;;;;;;;17.92;7.15;;;;;;;21.56;60.64;100974.97;6154043;23;20013;-80
2021/07/02 08:45:38;;;;;;;14.10;6.75;;;;;;;21.74;60.36;100981.81;6153842;23;20033;-80
2021/07/02 08:48:07;;;;;;;10.20;6.40;;;;;;;21.89;60.78;100990.72;6154429;23;20338;-80
2021/07/02 08:50:34;;;;;;;13.75;6.93;;;;;;;22.11;60.41;100990.59;6153866;23;20008;-81
2021/07/02 08:52:59;;;;;;;11.80;6.70;;;;;;;22.28;60.05;100986.44;6154009;23;20013;-80
2021/07/02 08:55:25;;;;;;;8.70;5.93;;;;;;;22.20;58.71;100986.66;6154926;23;20011;-80
2021/07/02 08:57:51;;;;;;;12.20;5.88;;;;;;;22.30;58.56;100992.56;6154524;23;20016;-81
2021/07/02 09:00:17;;;;;;;13.90;6.38;;;;;;;22.33;57.99;100997.63;6153748;23;20009;-80
2021/07/02 09:02:42;;;;;;;12.43;6.18;;;;;;;22.63;58.58;100998.13;6154319;23;20056;-81
2021/07/02 09:05:26;;;;;;;13.93;5.82;;;;;;;22.79;56.50;101007.84;6127590;23;20010;-81
2021/07/02 09:07:52;;;;;;;9.30;5.50;;;;;;;22.72;56.50;101001.50;6153772;23;20005;-80
2021/07/02 09:10:17;;;;;;;12.43;5.72;;;;;;;22.60;57.56;100997.69;6154014;23;20033;-80
2021/07/02 09:12:52;;;;;;;10.55;5.75;;;;;;;22.76;57.33;100991.81;6153740;23;20017;-81
2021/07/02 09:15:17;;;;;;;15.20;6.65;;;;;;;22.70;57.22;100998.13;6153703;23;20005;-80
2021/07/02 09:17:45;;;;;;;9.15;5.65;;;;;;;22.77;56.66;100979.78;6154696;23;20025;-81
2021/07/02 09:20:12;;;;;;;10.60;4.80;;;;;;;22.83;56.44;100991.81;6127120;23;20067;-80
2021/07/02 09:22:49;;;;;;;12.90;5.35;;;;;;;22.76;55.48;100990.97;6153606;23;20001;-80
2021/07/02 09:25:21;;;;;;;9.23;5.05;;;;;;;22.66;56.33;100992.22;6127092;23;20016;-80
2021/07/02 09:27:47;;;;;;;11.95;5.18;;;;;;;22.55;55.89;100995.56;6153408;23;20088;-81
2021/07/02 09:30:15;;;;;;;7.68;5.40;;;;;;;22.35;55.82;100997.44;6127579;23;20132;-81
2021/07/02 09:32:43;;;;;;;11.82;5.05;;;;;;;22.43;55.01;100998.06;6153412;23;20006;-80
2021/07/02 09:35:10;;;;;;;8.63;5.07;;;;;;;22.31;54.89;100999.72;6154292;23;20012;-80
2021/07/02 09:37:41;;;;;;;9.93;4.57;;;;;;;22.41;55.77;100996.63;6154336;23;20060;-81
2021/07/02 09:40:21;;;;;;;6.75;4.50;;;;;;;22.34;54.52;100993.84;6154173;23;20369;-80
2021/07/02 09:42:59;;;;;;;10.55;5.07;;;;;;;22.28;55.32;100991.09;6128129;23;20040;-81
2021/07/02 09:45:25;;;;;;;8.60;5.30;;;;;;;22.58;55.66;100997.91;6153212;23;20006;-80
2021/07/02 09:47:51;;;;;;;8.85;4.20;;;;;;;22.69;55.16;100993.72;6126734;23;20014;-81
2021/07/02 09:50:25;;;;;;;7.30;4.57;;;;;;;22.97;54.36;100999.03;6153308;23;20333;-80
2021/07/02 09:52:55;;;;;;;9.90;4.75;;;;;;;23.13;53.67;101000.47;6154043;23;20012;-81
2021/07/02 09:55:34;;;;;;;9.18;4.03;;;;;;;23.33;52.70;101006.81;6153884;23;20343;-80
2021/07/02 09:58:02;;;;;;;8.73;4.45;;;;;;;23.21;52.50;101016.75;6127490;23;20065;-81
2021/07/02 10:00:27;;;;;;;9.55;4.18;;;;;;;23.03;52.08;101013.78;6127005;23;20084;-81
2021/07/02 10:02:55;;;;;;;5.90;3.60;;;;;;;23.05;50.95;101011.66;6154343;23;20369;-81
2021/07/02 10:05:21;;;;;;;7.03;3.72;;;;;;;22.93;51.04;101014.19;6128653;23;20450;-81
2021/07/02 10:07:58;;;;;;;6.60;3.63;;;;;;;22.84;52.21;101019.03;6153981;23;20015;-81
2021/07/02 10:10:25;;;;;;;7.60;3.50;;;;;;;22.92;52.24;101018.81;6153286;23;20048;-80
2021/07/02 10:12:52;;;;;;;7.38;3.97;;;;;;;22.87;53.00;101015.88;6127137;23;20091;-81
2021/07/02 10:15:18;;;;;;;7.05;3.90;;;;;;;22.94;52.21;101013.16;6152989;23;20036;-80
2021/07/02 10:17:44;;;;;;;10.55;3.67;;;;;;;23.12;51.58;101012.53;6153702;23;20005;-81
2021/07/02 10:20:10;;;;;;;13.57;4.07;;;;;;;22.91;51.56;101011.63;6153752;23;20040;-81
2021/07/02 10:22:37;;;;;;;7.43;4.00;;;;;;;22.80;52.34;101014.16;6154990;23;20012;-81
2021/07/02 10:25:03;;;;;;;4.65;3.67;;;;;;;22.85;52.36;101011.66;6156038;23;20037;-81
2021/07/02 10:27:29;;;;;;;5.70;3.95;;;;;;;22.97;51.43;101012.72;6155269;23;20076;-80
2021/07/02 10:29:57;;;;;;;5.47;3.75;;;;;;;23.03;50.93;101006.41;6154811;23;20025;-81
2021/07/02 10:32:23;;;;;;;7.63;3.67;;;;;;;23.06;51.31;101007.88;6155767;23;20009;-81
2021/07/02 10:34:49;;;;;;;7.15;3.65;;;;;;;23.10;51.91;101004.50;6155029;23;20095;-81
2021/07/02 10:37:14;;;;;;;10.32;4.45;;;;;;;23.01;52.52;101015.91;6155345;23;20037;-81
2021/07/02 10:39:44;;;;;;;4.65;3.90;;;;;;;23.08;52.27;101011.25;6154934;23;20330;-81
2021/07/02 10:42:14;;;;;;;11.77;4.13;;;;;;;23.06;52.39;101014.22;6155167;23;20027;-81
2021/07/02 10:44:54;;;;;;;8.93;4.50;;;;;;;23.32;53.82;101012.50;6154832;23;20423;-80
2021/07/02 10:47:21;;;;;;;7.30;3.90;;;;;;;23.04;49.46;101012.72;6128443;23;20009;-80
2021/07/02 10:49:47;;;;;;;9.63;4.40;;;;;;;23.01;50.12;101011.25;6154873;23;20013;-80
2021/07/02 10:52:21;;;;;;;8.25;3.63;;;;;;;23.06;50.58;101032.56;6154844;23;20012;-80
2021/07/02 10:54:48;;;;;;;9.77;4.32;;;;;;;23.09;51.53;101012.94;6155607;23;20016;-80
2021/07/02 10:57:15;;;;;;;5.18;3.28;;;;;;;23.37;51.57;101013.53;6154749;23;20013;-80
2021/07/02 10:59:41;;;;;;;9.57;3.38;;;;;;;23.50;49.51;101020.06;6127688;23;20016;-80
2021/07/02 11:02:06;;;;;;;7.10;2.90;;;;;;;23.37;48.99;101013.53;6155148;23;20017;-81
2021/07/02 11:04:34;;;;;;;7.00;3.28;;;;;;;23.49;48.50;101015.66;6154904;23;20055;-81
2021/07/02 11:07:26;;;;;;;6.30;3.60;;;;;;;23.32;48.61;101013.34;6155777;23;20200;-80
2021/07/02 11:09:52;;;;;;;6.50;3.10;;;;;;;23.54;48.80;101004.84;6108610;23;20052;-80
2021/07/02 11:12:28;;;;;;;4.30;2.90;;;;;;;23.57;48.63;101021.75;6155415;23;20001;-80
2021/07/02 11:17:38;;;;;;;4.33;3.03;;;;;;;23.79;47.82;101022.34;6155447;23;20044;-81
2021/07/02 11:20:07;;;;;;;5.15;3.60;;;;;;;23.93;47.74;101025.03;6128081;23;20316;-81
2021/07/02 11:22:47;;;;;;;10.82;3.55;;;;;;;23.90;48.37;101025.47;6154431;23;20085;-81
2021/07/02 11:25:44;;;;;;;6.45;3.13;;;;;;;24.19;47.74;101024.94;6155424;23;20015;-80
2021/07/02 11:28:12;;;;;;;4.05;3.22;;;;;;;24.00;47.24;101034.97;6153561;23;20027;-81